Accueil
METAR-TAF:

METAR-TAF

Aéroports :

Peer, Belgique

Base aérienne de Kleine-Brogel

latitude: 51-10N, longitude: 005-28E, altitude: 55 m

Observation

Le bulletin a été fait il y a 30 minutes, à 06:25 UTC
Vent 8 kt de ouest/sud-ouest
Température 20°C
Humidité 73%
Pression 1015 hPa
Visibilité 10 km ou plus
Quelques nuages à une hauteur de 1500 ft
Nuages fragmentés à une hauteur de 25000 ft

METAR: EBBL 230625Z 25008KT 9999 FEW015 BKN250 20/15 Q1015 BLU BLU TEMPO WHT

Heure: 08:55 (06:55 UTC)

Prévision

Le bulletin a été fait il y a 1 heure et 14 minutes, à 05:41 UTC
Prévision valable du 23 à 07 UTC au 23 à 16 UTC
Vent 8 kt de sud-ouest
Visibilité 10 km ou plus
Nuages épars à une hauteur de 3000 ft
Nuages fragmentés à une hauteur de 4500 ft
Evoluant progressivement
du 23 à 14 UTC au 23 à 16 UTC
Vent 12 kt de ouest
Nuages fragmentés à une hauteur de 5000 ft

TAF: EBBL 230541Z 2307/2316 23008KT 9999 SCT030 BKN045 BECMG 2314/2316 26012KT BKN050

Observations et prévisions météorologiques de plus de 4000 aéroports (messages METAR et TAF).

Les stations disponibles sont représentées par des disques jaunes et rouges sur la carte.

Passer la souris dessus pour voir le nom de la station.

Cliquer dessus pour voir les observations et prévisions météorologiques.

Pour changer de carte: cliquez sur les boutons verts avec une croix noire pour zoomer, sur le bouton vert avec un tiret pour effectuer un zoom arrière, ou sur les flèches vertes pour les cartes adjacentes.


METAR-TAF: